Bolzano, Italy

4:33 AM CEST on August 03, 2015 (GMT +0200)
Bolzano Aeroporto MTAA | | Change Station
CLOSE
Current Station
Personal Weather Station
Location: Bolzano, TRENTINO-ALTO ADIGE
Elevation: 751 ft
Nearby Weather Stations

Elev 751 ft 46.45 °N, 11.32 °E | Updated 23 seconds ago

Mostly Cloudy
Mostly Cloudy
63.9 °F
Feels Like 63.9 °F
N
0.0
Wind Variable Wind from WNW
Gusts 1.0 mph

Today
High -- | Low -- °F
--% Chance of Precip.
Yesterday
High -- | Low -- °F
Precip. -- in
5:57 AM 8:43 PM
Waning Gibbous, 90% visible
Pressure 30.15 in
Visibility 6.2 miles
Clouds Few 900 ft
Mostly Cloudy 2400 ft
Dew Point 59 °F
Humidity 83%
Rainfall 0.00 in
Snow Depth Not available.
UV 0.0 out of 12
Pollen Not available.
Air Quality Not available.
Flu Activity Not available.
METAR LOWI 030220Z AUTO VRB01KT 9999 FEW009 BKN024 13/12 Q1021

More Conditions Fewer Conditions

Pressure 30.15 in
Visibility 6.2 miles
Clouds Few 900 ft
Mostly Cloudy 2400 ft
Dew Point 59 °F
Humidity 83%
Rainfall 0.00 in
Snow Depth Not available.
UV 0.0 out of 12
Pollen Not available.
Air Quality Not available.
Flu Activity Not available.
METAR LOWI 030220Z AUTO VRB01KT 9999 FEW009 BKN024 13/12 Q1021

More Conditions Fewer Conditions

10-Day Weather Forecast

×

Almanac

Astronomy

Aug. 03, 2015 Rise Set
Actual Time
Civil Twilight
Nautical Twilight
Astronomical Twilight
Moon
Length of Visible Light
Length of Day
Tomorrow will be .
, % of the Moon is Illuminated

Today's Extremes

Country Highs Country Lows

Community

WunderPhotos

Upload Photos

1,843,524 photos uploaded!

WunderBlogs® & News

Nearby

Air Quality

  Air Quality AQ Index Pollutant
Not available.

Snow Depth

Station Depth Elevation

Earthquake Activity

City Distance Mag. Time & Date
Minimum magnitude displayed is 2.5.

Coastal Water Temperatures

Place Temperature

Stations

Nearby Weather Stations

Station Location Temp. Windchill Dew Point Humidity Wind Precip. Elev Updated Type